Time;durP1;ratioP1;P1;durP2;ratioP2;P2;SDS_P1;SDS_P2;PMS_P1;PMS_P2;Temp;Humidity;BMP_temperature;BMP_pressure;BME280_temperature;BME280_humidity;BME280_pressure;Samples;Min_cycle;Max_cycle;Signal;HPM_P1;HPM_P2
2023/03/16 06:02:24;;;;;;;15.85;2.45;;;14.10;56.30;;;;;;4766685;30;20111;-72
2023/03/16 06:04:50;;;;;;;14.93;3.38;;;14.20;56.20;;;;;;4762893;30;20465;-73
2023/03/16 06:07:15;;;;;;;21.42;2.95;;;14.30;56.10;;;;;;4755731;30;20086;-69
2023/03/16 06:09:41;;;;;;;21.05;2.90;;;14.40;56.20;;;;;;4785940;30;20408;-72
2023/03/16 06:12:08;;;;;;;22.30;3.75;;;14.50;56.50;;;;;;4771421;30;20062;-72
2023/03/16 06:14:34;;;;;;;17.40;2.47;;;14.50;56.30;;;;;;4766878;30;20048;-78
2023/03/16 06:17:00;;;;;;;16.38;2.50;;;14.60;56.30;;;;;;4756276;30;20364;-73
2023/03/16 06:19:26;;;;;;;11.93;2.38;;;14.60;56.10;;;;;;4758717;30;20052;-73
2023/03/16 06:21:51;;;;;;;14.20;2.40;;;14.60;56.20;;;;;;4777207;30;20056;-71
2023/03/16 06:24:17;;;;;;;19.95;3.05;;;14.60;55.70;;;;;;4769892;30;20058;-75
2023/03/16 06:26:43;;;;;;;33.20;4.30;;;14.70;56.40;;;;;;4771943;30;20082;-77
2023/03/16 06:29:09;;;;;;;19.33;3.30;;;14.80;56.70;;;;;;4771671;30;20452;-72
2023/03/16 06:31:35;;;;;;;18.52;2.80;;;14.80;56.90;;;;;;4771525;30;20406;-73
2023/03/16 06:34:01;;;;;;;13.98;3.05;;;14.80;57.10;;;;;;4771542;30;20070;-77
2023/03/16 06:36:27;;;;;;;28.00;4.18;;;14.90;56.50;;;;;;4771602;30;20056;-75
2023/03/16 06:38:53;;;;;;;23.58;3.53;;;14.90;56.00;;;;;;4772517;30;20051;-74
2023/03/16 06:41:18;;;;;;;17.48;3.78;;;15.00;56.60;;;;;;4775164;30;20124;-73
2023/03/16 06:43:44;;;;;;;38.25;4.03;;;15.00;57.00;;;;;;4759025;30;20330;-74
2023/03/16 06:46:10;;;;;;;29.67;3.83;;;15.20;57.30;;;;;;4759929;30;20074;-75
2023/03/16 06:48:36;;;;;;;35.08;4.50;;;15.20;57.40;;;;;;4775079;30;20467;-74
2023/03/16 06:51:01;;;;;;;29.52;4.57;;;15.30;57.10;;;;;;4775174;30;20047;-74
2023/03/16 06:53:27;;;;;;;33.67;5.15;;;15.30;57.30;;;;;;4774816;30;20055;-77
2023/03/16 06:55:53;;;;;;;31.83;4.63;;;15.30;57.70;;;;;;4759078;30;20142;-74
2023/03/16 06:58:19;;;;;;;32.35;3.88;;;15.30;57.80;;;;;;4774620;30;20048;-75
2023/03/16 07:00:44;;;;;;;37.63;5.18;;;15.30;58.00;;;;;;4758429;30;20102;-74
2023/03/16 07:03:10;;;;;;;44.53;5.93;;;15.40;57.90;;;;;;4781086;30;20379;-73
2023/03/16 07:05:43;;;;;;;36.78;5.65;;;15.50;58.00;;;;;;4792593;30;20055;-75
2023/03/16 07:08:09;;;;;;;39.13;5.25;;;15.50;57.90;;;;;;4744615;30;20128;-74
2023/03/16 07:10:35;;;;;;;30.73;5.05;;;15.00;57.00;;;;;;4756932;30;20411;-74
2023/03/16 07:13:00;;;;;;;35.38;5.30;;;15.10;57.60;;;;;;4762132;30;20409;-73
2023/03/16 07:15:26;;;;;;;28.73;4.95;;;15.20;56.90;;;;;;4774984;30;20128;-75
2023/03/16 07:17:52;;;;;;;30.40;4.30;;;15.30;56.20;;;;;;4774611;30;20051;-75
2023/03/16 07:20:18;;;;;;;25.20;3.63;;;15.40;55.90;;;;;;4774455;30;20342;-74
2023/03/16 07:22:44;;;;;;;20.02;3.70;;;15.40;55.90;;;;;;4777053;30;20062;-74
2023/03/16 07:25:10;;;;;;;23.33;3.17;;;15.40;56.00;;;;;;4792202;30;20051;-73
2023/03/16 07:27:37;;;;;;;30.10;4.60;;;15.30;56.10;;;;;;4791971;30;20066;-77
2023/03/16 07:30:04;;;;;;;25.27;3.70;;;15.30;56.00;;;;;;4785233;30;20445;-76
2023/03/16 07:32:31;;;;;;;26.02;3.63;;;15.30;56.00;;;;;;4774165;30;20086;-74
2023/03/16 07:34:57;;;;;;;31.60;4.60;;;15.20;56.00;;;;;;4781691;30;20130;-75
2023/03/16 07:37:24;;;;;;;22.75;3.63;;;15.20;56.30;;;;;;4791955;30;20387;-77
2023/03/16 07:39:50;;;;;;;23.75;3.10;;;15.10;56.60;;;;;;4792644;30;20051;-78
2023/03/16 07:42:16;;;;;;;29.92;3.67;;;15.10;56.90;;;;;;4776464;30;20443;-76
2023/03/16 07:44:42;;;;;;;18.75;3.15;;;15.10;57.00;;;;;;4772673;30;20057;-76
2023/03/16 07:47:11;;;;;;;18.48;3.83;;;15.10;57.00;;;;;;4774071;30;20476;-76
2023/03/16 07:49:37;;;;;;;19.15;4.25;;;15.20;57.20;;;;;;4773181;30;20067;-76
2023/03/16 07:52:03;;;;;;;17.48;3.35;;;15.30;57.20;;;;;;4773321;30;20059;-76
2023/03/16 07:54:29;;;;;;;21.33;2.90;;;15.40;57.20;;;;;;4758331;30;20452;-75
2023/03/16 07:56:56;;;;;;;24.85;3.33;;;15.50;57.20;;;;;;4770675;30;20055;-77
2023/03/16 07:59:22;;;;;;;24.40;3.30;;;15.60;57.40;;;;;;4755668;30;20581;-76
2023/03/16 08:01:48;;;;;;;18.40;2.42;;;15.60;57.40;;;;;;4770246;30;20071;-77
2023/03/16 08:04:14;;;;;;;16.83;3.15;;;15.70;57.40;;;;;;4758020;30;20071;-79
2023/03/16 08:06:41;;;;;;;17.92;3.42;;;15.80;56.90;;;;;;4759211;30;20468;-75
2023/03/16 08:09:07;;;;;;;8.52;1.92;;;15.70;57.30;;;;;;4790767;30;20136;-77
2023/03/16 08:11:33;;;;;;;19.67;3.33;;;15.80;57.10;;;;;;4790751;30;20086;-76
2023/03/16 08:13:58;;;;;;;20.75;3.13;;;15.80;56.80;;;;;;4787116;30;20050;-74
2023/03/16 08:16:25;;;;;;;14.65;2.65;;;15.80;57.10;;;;;;4787670;29;20066;-82
2023/03/16 08:18:58;;;;;;;14.90;2.20;;;15.80;58.00;;;;;;4763574;30;20213;-85
2023/03/16 08:21:24;;;;;;;14.63;2.63;;;15.90;56.90;;;;;;4786190;29;20089;-79
2023/03/16 08:23:50;;;;;;;16.80;2.38;;;16.00;56.80;;;;;;4790418;30;20154;-81
2023/03/16 08:26:17;;;;;;;10.20;2.40;;;16.00;56.90;;;;;;4785591;30;20336;-75
2023/03/16 08:28:47;;;;;;;15.52;2.00;;;16.10;56.10;;;;;;4788614;30;20499;-74
2023/03/16 08:31:14;;;;;;;11.95;1.98;;;16.10;55.70;;;;;;4790321;30;20042;-74
2023/03/16 08:33:41;;;;;;;13.55;1.70;;;16.10;55.70;;;;;;4774854;30;20059;-74
2023/03/16 08:36:09;;;;;;;9.52;1.90;;;16.10;55.50;;;;;;4790297;30;20047;-76
2023/03/16 08:38:34;;;;;;;15.02;1.65;;;16.20;55.50;;;;;;4787020;30;20376;-73
2023/03/16 08:41:00;;;;;;;11.48;1.95;;;16.20;55.40;;;;;;4790313;30;20062;-73
2023/03/16 08:43:27;;;;;;;13.18;1.58;;;16.20;55.30;;;;;;4789906;30;20050;-74
2023/03/16 08:45:52;;;;;;;10.18;1.60;;;16.20;55.30;;;;;;4790447;30;20043;-76
2023/03/16 08:48:19;;;;;;;11.30;1.90;;;16.30;55.40;;;;;;4790442;30;20352;-74
2023/03/16 08:50:45;;;;;;;12.50;1.80;;;16.20;55.40;;;;;;4789032;30;20091;-74
2023/03/16 08:53:13;;;;;;;13.57;1.80;;;16.20;55.40;;;;;;4774520;30;20047;-74
2023/03/16 08:55:40;;;;;;;11.88;1.92;;;16.20;55.40;;;;;;4770817;30;20436;-74
2023/03/16 08:58:07;;;;;;;14.65;2.00;;;16.30;55.50;;;;;;4790270;30;20100;-76
2023/03/16 09:00:34;;;;;;;11.25;1.67;;;16.30;55.30;;;;;;4789114;30;20066;-73
2023/03/16 09:03:01;;;;;;;12.68;2.17;;;16.30;55.30;;;;;;4789197;29;20054;-73
2023/03/16 09:05:31;;;;;;;3.35;0.98;;;16.40;55.30;;;;;;4788268;30;20368;-74
2023/03/16 09:07:57;;;;;;;11.25;1.90;;;16.30;55.30;;;;;;4771956;30;20043;-73
2023/03/16 09:10:24;;;;;;;8.45;1.90;;;16.40;55.50;;;;;;4771054;30;20486;-77
2023/03/16 09:12:53;;;;;;;7.85;1.35;;;16.40;56.10;;;;;;4789550;30;20118;-81
2023/03/16 09:15:20;;;;;;;9.43;2.05;;;16.40;56.10;;;;;;4784683;30;20060;-74
2023/03/16 09:18:02;;;;;;;9.60;1.42;;;16.40;55.60;;;;;;4773222;30;20047;-81
2023/03/16 09:20:28;;;;;;;9.13;1.27;;;16.40;55.70;;;;;;4772222;30;20043;-73
2023/03/16 09:22:55;;;;;;;9.52;1.52;;;16.30;56.00;;;;;;4774403;30;20058;-73
2023/03/16 09:25:21;;;;;;;9.23;1.77;;;16.30;55.20;;;;;;4789762;30;20418;-77
2023/03/16 09:27:47;;;;;;;8.55;1.42;;;16.30;55.10;;;;;;4789432;30;20063;-76
2023/03/16 09:30:15;;;;;;;7.53;1.10;;;16.40;55.10;;;;;;4773640;30;20055;-74
2023/03/16 09:32:41;;;;;;;5.53;1.10;;;16.40;55.00;;;;;;4774005;30;20050;-74
2023/03/16 09:35:07;;;;;;;4.22;1.00;;;16.30;55.00;;;;;;4789665;30;20484;-73
2023/03/16 09:37:34;;;;;;;5.47;1.10;;;16.30;55.30;;;;;;4787385;30;20051;-74
2023/03/16 09:40:00;;;;;;;7.00;1.85;;;16.30;55.40;;;;;;4789194;30;20055;-74
2023/03/16 09:42:47;;;;;;;6.80;1.48;;;16.30;55.30;;;;;;4789408;30;20043;-73
2023/03/16 09:46:02;;;;;;;6.95;1.23;;;16.30;55.30;;;;;;4773351;30;20055;-74
2023/03/16 09:48:31;;;;;;;5.82;1.15;;;16.40;55.40;;;;;;4779076;30;20352;-74
2023/03/16 09:50:59;;;;;;;4.25;0.95;;;16.30;55.30;;;;;;4758840;30;20055;-74
2023/03/16 09:53:31;;;;;;;4.35;1.02;;;16.30;55.30;;;;;;4788416;30;20506;-74
2023/03/16 09:56:11;;;;;;;7.60;1.23;;;16.30;55.30;;;;;;4787124;30;20051;-74
2023/03/16 09:58:37;;;;;;;5.57;1.27;;;16.30;55.40;;;;;;4786927;30;20058;-74
2023/03/16 10:01:24;;;;;;;8.43;1.40;;;16.30;55.40;;;;;;4781778;30;20487;-74
2023/03/16 10:04:12;;;;;;;4.88;1.50;;;16.40;55.40;;;;;;4770808;30;20091;-74
2023/03/16 10:06:52;;;;;;;6.20;1.58;;;16.30;55.40;;;;;;4768868;30;20047;-74
2023/03/16 10:10:22;;;;;;;8.90;1.25;;;16.30;55.60;;;;;;4769316;30;20471;-72
2023/03/16 10:12:51;;;;;;;4.80;0.80;;;16.30;55.70;;;;;;4679530;30;20498;-79
2023/03/16 10:15:26;;;;;;;2.58;0.75;;;16.30;55.50;;;;;;4703109;30;20171;-74
2023/03/16 10:18:09;;;;;;;3.72;1.17;;;16.30;55.40;;;;;;4753304;30;20164;-73
2023/03/16 10:20:35;;;;;;;4.60;1.15;;;16.30;55.20;;;;;;4766553;30;20052;-74
2023/03/16 10:23:23;;;;;;;6.68;1.30;;;16.30;55.30;;;;;;4775254;30;20062;-74
2023/03/16 10:25:50;;;;;;;6.63;1.15;;;16.30;55.90;;;;;;4775227;30;20052;-73
2023/03/16 10:28:22;;;;;;;6.82;1.10;;;16.20;56.00;;;;;;4774419;30;20052;-74
2023/03/16 10:30:50;;;;;;;7.20;1.25;;;16.30;56.20;;;;;;4775271;30;20047;-72
2023/03/16 10:33:23;;;;;;;7.50;1.40;;;16.30;56.20;;;;;;4775076;30;20052;-75
2023/03/16 10:36:28;;;;;;;15.15;1.90;;;16.40;56.40;;;;;;4775471;30;20136;-73
2023/03/16 10:39:01;;;;;;;7.90;1.88;;;16.40;56.40;;;;;;4737390;30;20476;-73
2023/03/16 10:41:36;;;;;;;13.93;1.73;;;16.30;55.60;;;;;;4770078;30;20380;-76
2023/03/16 10:44:07;;;;;;;15.80;2.50;;;16.30;55.60;;;;;;4774732;30;20051;-74
2023/03/16 10:46:47;;;;;;;9.65;1.73;;;16.30;55.60;;;;;;4775042;30;20064;-72
2023/03/16 10:49:26;;;;;;;12.68;1.88;;;16.40;55.80;;;;;;4775668;30;20189;-76
2023/03/16 10:51:58;;;;;;;11.32;1.98;;;16.40;55.90;;;;;;4774747;30;20430;-73
2023/03/16 10:54:34;;;;;;;10.10;1.48;;;16.40;56.00;;;;;;4774805;30;20039;-74
2023/03/16 10:57:12;;;;;;;13.90;2.38;;;16.40;56.30;;;;;;4774809;30;20044;-77
2023/03/16 10:59:39;;;;;;;9.23;1.70;;;16.30;56.80;;;;;;4774782;30;20047;-73
2023/03/16 11:02:16;;;;;;;18.70;2.75;;;16.40;56.90;;;;;;4789591;30;20451;-74
2023/03/16 11:04:42;;;;;;;10.52;1.98;;;16.40;57.50;;;;;;4782029;30;20091;-73
2023/03/16 11:07:16;;;;;;;10.07;2.35;;;16.40;57.20;;;;;;4774652;30;20056;-72
2023/03/16 11:09:42;;;;;;;;;;;16.50;56.50;;;;;;4774577;30;20497;-72
2023/03/16 11:12:20;;;;;;;13.07;2.08;;;16.40;55.90;;;;;;4774336;30;19983;-73
2023/03/16 11:14:47;;;;;;;10.90;2.38;;;16.40;55.30;;;;;;4769440;30;20440;-74
2023/03/16 11:17:38;;;;;;;11.75;2.88;;;16.40;54.90;;;;;;4774960;30;20059;-76
2023/03/16 11:20:11;;;;;;;8.50;1.67;;;16.40;54.30;;;;;;4775096;30;20322;-77
2023/03/16 11:22:38;;;;;;;9.52;1.73;;;16.40;54.50;;;;;;4774414;30;20113;-72
2023/03/16 11:25:14;;;;;;;11.38;1.90;;;16.00;52.90;;;;;;4773986;30;20060;-73
2023/03/16 11:28:02;;;;;;;9.02;2.35;;;15.90;55.80;;;;;;4780469;30;20479;-77
2023/03/16 11:30:34;;;;;;;12.88;2.88;;;16.00;56.20;;;;;;4786337;30;20051;-73
2023/03/16 11:33:00;;;;;;;12.73;2.58;;;16.10;56.20;;;;;;4789456;30;20043;-72
2023/03/16 11:35:34;;;;;;;19.83;3.00;;;16.20;56.40;;;;;;4769681;30;20063;-74
2023/03/16 11:38:12;;;;;;;17.52;2.80;;;16.30;57.00;;;;;;4774206;30;20056;-73
2023/03/16 11:40:46;;;;;;;27.63;2.53;;;16.40;57.10;;;;;;4774220;30;20052;-73
2023/03/16 11:43:26;;;;;;;;;;;16.40;57.50;;;;;;4774521;30;20043;-72
2023/03/16 11:46:22;;;;;;;15.18;2.00;;;16.40;58.00;;;;;;4758282;30;19925;-74
2023/03/16 11:49:06;;;;;;;20.85;3.13;;;16.40;58.00;;;;;;4773038;30;20498;-72
2023/03/16 11:51:52;;;;;;;12.48;2.47;;;16.50;58.80;;;;;;4773885;30;20094;-75
2023/03/16 11:54:26;;;;;;;12.98;2.22;;;16.40;59.30;;;;;;4773942;30;20056;-72
2023/03/16 11:56:59;;;;;;;13.65;2.08;;;16.40;59.50;;;;;;4773809;30;20056;-74
2023/03/16 11:59:56;;;;;;;12.80;2.17;;;16.40;59.60;;;;;;4774074;30;20063;-72
2023/03/16 12:03:01;;;;;;;18.77;2.78;;;16.30;60.30;;;;;;4772264;30;20087;-74
2023/03/16 12:05:41;;;;;;;8.73;2.22;;;16.30;60.50;;;;;;4762809;30;20056;-73
2023/03/16 12:08:25;;;;;;;15.18;2.70;;;16.20;60.70;;;;;;4762501;30;20113;-72
2023/03/16 12:10:56;;;;;;;20.27;2.50;;;16.20;60.90;;;;;;4743277;30;20139;-72
2023/03/16 12:13:51;;;;;;;13.93;2.58;;;16.10;60.90;;;;;;4757591;30;20064;-72
2023/03/16 12:16:26;;;;;;;17.60;3.30;;;16.00;61.00;;;;;;4773166;30;20062;-71
2023/03/16 12:19:02;;;;;;;12.15;2.20;;;16.00;60.80;;;;;;4771836;30;20066;-71
2023/03/16 12:21:37;;;;;;;17.88;2.55;;;16.00;60.00;;;;;;4773099;30;20071;-72
2023/03/16 12:24:08;;;;;;;11.43;2.75;;;16.00;59.70;;;;;;4773539;30;20384;-72
2023/03/16 12:26:38;;;;;;;10.40;2.40;;;16.00;59.20;;;;;;4773094;30;20055;-73
2023/03/16 12:29:41;;;;;;;8.15;2.40;;;15.90;58.60;;;;;;4773638;30;20415;-72
2023/03/16 12:32:16;;;;;;;9.60;1.85;;;15.80;58.00;;;;;;4732422;30;20079;-74
2023/03/16 12:35:10;;;;;;;12.15;2.40;;;15.80;58.50;;;;;;4771763;30;20063;-72
2023/03/16 12:37:47;;;;;;;16.83;2.30;;;15.70;58.70;;;;;;4772867;30;20074;-72
2023/03/16 12:40:51;;;;;;;14.98;2.63;;;15.70;58.70;;;;;;4772944;30;20062;-73
2023/03/16 12:43:56;;;;;;;12.93;2.60;;;15.60;58.50;;;;;;4756252;30;20070;-73
2023/03/16 12:46:38;;;;;;;8.32;1.98;;;15.60;58.90;;;;;;4752736;30;20068;-74
2023/03/16 12:49:06;;;;;;;8.77;2.17;;;15.50;59.30;;;;;;4755474;30;20136;-74
2023/03/16 12:51:40;;;;;;;13.95;2.05;;;15.50;59.40;;;;;;4754795;30;20056;-75
2023/03/16 12:54:21;;;;;;;16.42;3.08;;;15.50;59.30;;;;;;4755001;30;20127;-74
2023/03/16 12:56:49;;;;;;;10.60;2.08;;;15.40;59.20;;;;;;4756990;30;20068;-73
2023/03/16 12:59:23;;;;;;;11.23;2.28;;;15.40;59.50;;;;;;4772068;30;20051;-75
2023/03/16 13:01:56;;;;;;;12.68;2.60;;;15.40;59.70;;;;;;4772000;30;20116;-73
2023/03/16 13:04:31;;;;;;;19.48;3.33;;;15.40;59.90;;;;;;4772168;30;20052;-70
2023/03/16 13:07:09;;;;;;;10.25;2.13;;;15.40;60.10;;;;;;4770267;30;20075;-71
2023/03/16 13:09:41;;;;;;;16.25;2.15;;;15.30;60.20;;;;;;4770205;30;20460;-71
2023/03/16 13:12:09;;;;;;;12.60;2.00;;;15.30;60.30;;;;;;4771994;30;20043;-71
2023/03/16 13:14:40;;;;;;;10.90;2.85;;;15.30;61.00;;;;;;4772018;30;20051;-71
2023/03/16 13:17:15;;;;;;;10.95;1.70;;;15.30;60.50;;;;;;4771847;30;20051;-69
2023/03/16 13:19:43;;;;;;;12.70;2.22;;;15.30;60.60;;;;;;4771788;30;20127;-71
2023/03/16 13:22:21;;;;;;;10.38;1.33;;;15.20;60.60;;;;;;4760510;30;20182;-72
2023/03/16 13:24:58;;;;;;;9.43;1.85;;;15.20;60.60;;;;;;4776697;30;20052;-71
2023/03/16 13:27:33;;;;;;;9.50;1.88;;;15.20;60.50;;;;;;4769835;30;20126;-70
2023/03/16 13:30:30;;;;;;;9.90;2.00;;;15.20;60.40;;;;;;4771909;30;20055;-71
2023/03/16 13:33:20;;;;;;;14.85;1.90;;;15.20;60.50;;;;;;4771276;30;20059;-71
2023/03/16 13:35:51;;;;;;;12.98;2.08;;;15.20;60.70;;;;;;4769690;30;20072;-71
2023/03/16 13:38:21;;;;;;;12.20;2.00;;;15.20;60.80;;;;;;4771715;30;20062;-71
2023/03/16 13:40:53;;;;;;;8.73;1.70;;;15.10;60.70;;;;;;4771556;30;20058;-72
2023/03/16 13:43:23;;;;;;;9.57;1.90;;;15.10;60.80;;;;;;4771538;30;20043;-73
2023/03/16 13:45:49;;;;;;;7.20;1.85;;;15.10;61.00;;;;;;4771628;30;20126;-71
2023/03/16 13:48:16;;;;;;;6.75;1.70;;;15.10;61.10;;;;;;4771113;30;20134;-71
2023/03/16 13:50:43;;;;;;;10.70;1.85;;;15.10;61.20;;;;;;4771632;30;20059;-70
2023/03/16 13:53:39;;;;;;;7.97;1.55;;;15.10;61.10;;;;;;4755843;30;20059;-71
2023/03/16 13:56:06;;;;;;;10.18;2.10;;;15.10;60.90;;;;;;4770426;30;20064;-70
2023/03/16 13:58:36;;;;;;;11.32;2.42;;;15.00;61.10;;;;;;4771207;30;20140;-72
2023/03/16 14:01:10;;;;;;;18.50;3.30;;;15.00;61.20;;;;;;4778870;30;20074;-73
2023/03/16 14:03:41;;;;;;;25.02;4.00;;;15.00;61.20;;;;;;4789779;30;20119;-70
2023/03/16 14:06:27;;;;;;;12.88;2.42;;;15.00;60.40;;;;;;4790153;30;20090;-72
2023/03/16 14:09:00;;;;;;;10.50;2.47;;;14.90;60.20;;;;;;4782003;30;20371;-70
2023/03/16 14:11:27;;;;;;;15.75;3.63;;;14.80;60.10;;;;;;4778827;30;20066;-71
2023/03/16 14:13:54;;;;;;;13.25;2.83;;;14.70;60.30;;;;;;4789762;30;20127;-70
2023/03/16 14:16:23;;;;;;;13.77;3.03;;;14.50;60.20;;;;;;4789637;30;20070;-70
2023/03/16 14:19:07;;;;;;;21.13;3.53;;;14.50;60.90;;;;;;4765185;30;20456;-71
2023/03/16 14:21:34;;;;;;;17.55;3.70;;;14.60;60.70;;;;;;4782512;30;20093;-70
2023/03/16 14:24:05;;;;;;;15.73;2.58;;;14.60;60.80;;;;;;4786539;30;20413;-77
2023/03/16 14:26:41;;;;;;;18.17;3.40;;;14.40;60.40;;;;;;4786968;30;20476;-78
2023/03/16 14:29:27;;;;;;;15.50;3.22;;;14.10;61.50;;;;;;4788884;30;20059;-80
2023/03/16 14:31:54;;;;;;;13.43;2.95;;;14.00;62.40;;;;;;4787049;30;20108;-74
2023/03/16 14:34:29;;;;;;;10.68;2.97;;;13.90;62.80;;;;;;4774056;30;20061;-71
2023/03/16 14:37:32;;;;;;;21.38;3.47;;;14.00;63.10;;;;;;4789170;30;20047;-75
2023/03/16 14:40:01;;;;;;;36.53;5.75;;;14.00;64.10;;;;;;4767921;30;20128;-73
2023/03/16 14:42:29;;;;;;;40.08;6.40;;;14.50;63.60;;;;;;4773960;30;20471;-72
2023/03/16 14:44:58;;;;;;;33.10;6.95;;;14.80;63.10;;;;;;4787927;30;20044;-72
2023/03/16 14:47:29;;;;;;;32.40;5.32;;;14.90;62.30;;;;;;4773591;30;20087;-72
2023/03/16 14:50:06;;;;;;;31.92;6.03;;;15.10;60.70;;;;;;4789591;30;20059;-71
2023/03/16 14:52:33;;;;;;;30.75;5.90;;;15.20;59.20;;;;;;4789315;30;20130;-70
2023/03/16 14:55:01;;;;;;;31.98;9.95;;;15.30;58.60;;;;;;4789833;30;20051;-72
2023/03/16 14:57:27;;;;;;;36.85;9.13;;;15.30;59.70;;;;;;4789698;30;20112;-71
2023/03/16 14:59:54;;;;;;;29.20;7.43;;;15.40;60.90;;;;;;4790211;29;20059;-76
2023/03/16 15:02:29;;;;;;;42.38;8.52;;;15.40;60.10;;;;;;4792269;30;20537;-73
2023/03/16 15:04:56;;;;;;;31.85;6.50;;;15.50;60.20;;;;;;4792853;30;20054;-74
2023/03/16 15:07:22;;;;;;;36.05;7.22;;;15.40;59.30;;;;;;4792458;30;20051;-75
2023/03/16 15:09:50;;;;;;;25.65;7.80;;;15.40;59.90;;;;;;4792813;30;20059;-74
2023/03/16 15:12:18;;;;;;;31.55;7.57;;;15.50;60.60;;;;;;4792884;30;20058;-74
2023/03/16 15:17:30;;;;;;;28.77;6.45;;;15.50;60.00;;;;;;4792247;30;20060;-76
2023/03/16 15:19:56;;;;;;;22.02;5.47;;;15.40;60.20;;;;;;4792230;30;20055;-72
2023/03/16 15:22:34;;;;;;;21.70;6.50;;;15.40;60.20;;;;;;4792546;30;20516;-74
2023/03/16 15:25:21;;;;;;;24.23;6.03;;;15.40;59.90;;;;;;4791694;30;20051;-74
2023/03/16 15:27:48;;;;;;;19.23;5.50;;;15.40;59.80;;;;;;4792559;30;20093;-76
2023/03/16 15:30:31;;;;;;;18.50;4.88;;;15.50;59.40;;;;;;4792293;30;20094;-74
2023/03/16 15:32:57;;;;;;;16.30;4.75;;;15.50;58.30;;;;;;4792388;30;20062;-73
2023/03/16 15:35:23;;;;;;;23.98;5.90;;;15.50;57.60;;;;;;4772960;30;20056;-71
2023/03/16 15:37:48;;;;;;;18.73;5.45;;;15.50;57.40;;;;;;4775241;30;20097;-72
2023/03/16 15:40:24;;;;;;;20.73;4.93;;;15.60;57.70;;;;;;4791114;30;20069;-71
2023/03/16 15:42:50;;;;;;;32.85;6.10;;;15.70;58.00;;;;;;4787861;30;20059;-71
2023/03/16 15:45:19;;;;;;;25.52;5.07;;;15.80;58.30;;;;;;4782720;30;20126;-71
2023/03/16 15:47:54;;;;;;;28.73;5.05;;;15.90;58.40;;;;;;4791794;30;20066;-72
2023/03/16 15:50:23;;;;;;;32.55;5.20;;;15.90;58.70;;;;;;4774099;30;20459;-70
2023/03/16 15:53:14;;;;;;;30.42;4.65;;;16.10;58.90;;;;;;4773706;30;20369;-72
2023/03/16 15:55:45;;;;;;;26.55;4.28;;;16.00;59.10;;;;;;4774212;30;20352;-73
2023/03/16 15:58:19;;;;;;;27.17;4.50;;;16.10;59.30;;;;;;4773898;30;20059;-72
2023/03/16 16:00:46;;;;;;;26.85;4.65;;;16.10;59.60;;;;;;4773458;30;20213;-71
2023/03/16 16:03:12;;;;;;;27.27;5.05;;;16.10;59.90;;;;;;4773747;30;20063;-74
2023/03/16 16:05:38;;;;;;;33.83;5.25;;;16.20;60.20;;;;;;4773610;30;20062;-74
2023/03/16 16:08:05;;;;;;;23.33;4.63;;;16.20;60.60;;;;;;4773790;30;20124;-72
2023/03/16 16:10:31;;;;;;;30.83;5.20;;;16.20;61.00;;;;;;4774850;30;20151;-72
2023/03/16 16:12:58;;;;;;;27.55;4.82;;;16.20;61.20;;;;;;4790393;29;20363;-68
2023/03/16 16:15:28;;;;;;;26.70;5.13;;;16.30;61.60;;;;;;4791894;30;20055;-71
2023/03/16 16:17:56;;;;;;;28.02;4.80;;;16.30;61.90;;;;;;4791021;30;20448;-73
2023/03/16 16:20:27;;;;;;;31.85;5.60;;;16.30;62.20;;;;;;4791568;30;20051;-72
2023/03/16 16:22:54;;;;;;;36.75;5.30;;;16.30;62.60;;;;;;4790347;30;20054;-71
2023/03/16 16:25:22;;;;;;;40.08;6.03;;;16.30;62.80;;;;;;4790344;30;20047;-74
2023/03/16 16:27:52;;;;;;;23.63;4.88;;;16.30;63.20;;;;;;4775041;30;20161;-70
2023/03/16 16:30:20;;;;;;;31.13;4.50;;;16.20;63.30;;;;;;4791037;30;20051;-71
2023/03/16 16:32:47;;;;;;;31.20;5.30;;;16.20;63.60;;;;;;4788306;30;20065;-71
2023/03/16 16:35:19;;;;;;;24.38;4.38;;;16.20;63.80;;;;;;4787970;30;20383;-71
2023/03/16 16:37:45;;;;;;;31.58;5.28;;;16.20;64.10;;;;;;4790747;30;20463;-71
2023/03/16 16:40:16;;;;;;;32.38;4.72;;;16.10;64.60;;;;;;4774800;30;20077;-70
2023/03/16 16:42:42;;;;;;;29.48;5.13;;;16.10;64.50;;;;;;4797351;29;20069;-71
2023/03/16 16:45:16;;;;;;;22.83;5.03;;;16.10;64.70;;;;;;4790601;30;20043;-72
2023/03/16 16:47:44;;;;;;;21.17;4.45;;;16.00;64.80;;;;;;4790993;30;20059;-72
2023/03/16 16:50:19;;;;;;;23.25;4.30;;;16.00;64.70;;;;;;4790987;30;20062;-72
2023/03/16 16:52:45;;;;;;;23.65;4.25;;;16.00;64.80;;;;;;4787067;30;20067;-72
2023/03/16 16:55:12;;;;;;;30.33;3.83;;;16.00;64.70;;;;;;4790467;30;20043;-72
2023/03/16 16:57:38;;;;;;;23.30;4.18;;;16.10;65.00;;;;;;4790482;30;20443;-73
2023/03/16 17:00:07;;;;;;;27.15;4.63;;;16.10;65.00;;;;;;4790911;30;20059;-72
2023/03/16 17:02:50;;;;;;;23.70;4.40;;;16.20;64.90;;;;;;4782089;30;20373;-72
2023/03/16 17:05:27;;;;;;;21.13;4.32;;;16.30;64.20;;;;;;4772184;30;20384;-72
2023/03/16 17:07:54;;;;;;;24.13;3.83;;;16.40;64.30;;;;;;4777605;30;20388;-72
2023/03/16 17:10:22;;;;;;;21.98;3.95;;;16.40;63.90;;;;;;4789868;30;20362;-72
2023/03/16 17:12:55;;;;;;;27.08;3.72;;;16.40;63.90;;;;;;4790423;30;20371;-70
2023/03/16 17:15:26;;;;;;;25.65;4.05;;;16.40;63.30;;;;;;4789712;30;20054;-70
2023/03/16 17:17:56;;;;;;;31.20;4.13;;;16.40;63.30;;;;;;4790186;30;20044;-73
2023/03/16 17:20:24;;;;;;;22.00;3.13;;;16.40;63.30;;;;;;4790649;30;20055;-72
2023/03/16 17:22:53;;;;;;;29.02;4.43;;;16.40;63.20;;;;;;4790008;30;20066;-72
2023/03/16 17:25:19;;;;;;;15.65;2.97;;;16.40;63.30;;;;;;4790089;30;20059;-72
2023/03/16 17:27:47;;;;;;;21.10;3.50;;;16.30;63.20;;;;;;4790503;30;20043;-72
2023/03/16 17:30:29;;;;;;;17.40;2.70;;;16.30;63.20;;;;;;4790154;30;20177;-72
2023/03/16 17:33:02;;;;;;;14.98;2.83;;;16.20;63.20;;;;;;4790322;30;20211;-72
2023/03/16 17:35:28;;;;;;;14.63;2.70;;;16.20;63.10;;;;;;4790810;30;20051;-72
2023/03/16 17:37:53;;;;;;;14.90;3.03;;;16.20;63.20;;;;;;4789928;30;20531;-72
2023/03/16 17:40:24;;;;;;;17.00;3.38;;;16.20;63.10;;;;;;4790105;30;20062;-72
2023/03/16 17:42:51;;;;;;;16.42;2.47;;;16.10;63.00;;;;;;4790226;30;20116;-72
2023/03/16 17:45:26;;;;;;;15.70;3.17;;;16.10;63.10;;;;;;4789746;30;20061;-72
2023/03/16 17:47:54;;;;;;;12.77;2.58;;;16.00;63.00;;;;;;4790609;30;20055;-72
2023/03/16 17:50:27;;;;;;;14.23;2.83;;;16.00;63.00;;;;;;4790169;30;20051;-72
2023/03/16 17:52:54;;;;;;;13.25;2.88;;;15.90;62.90;;;;;;4790192;30;20063;-72
2023/03/16 17:55:23;;;;;;;14.40;2.97;;;15.90;62.90;;;;;;4790081;30;20476;-72
2023/03/16 17:57:53;;;;;;;22.67;3.47;;;15.90;62.90;;;;;;4790048;30;20097;-72
2023/03/16 18:00:30;;;;;;;9.27;2.75;;;15.80;62.90;;;;;;4787306;30;20181;-72
2023/03/16 18:03:01;;;;;;;8.32;2.83;;;15.80;62.90;;;;;;4772377;30;20142;-72
2023/03/16 18:05:32;;;;;;;15.85;2.97;;;15.80;62.90;;;;;;4772191;30;20062;-72
2023/03/16 18:08:09;;;;;;;7.95;3.30;;;15.70;62.80;;;;;;4771472;30;20060;-72
2023/03/16 18:10:35;;;;;;;11.60;2.65;;;15.70;62.80;;;;;;4772427;30;20106;-72
2023/03/16 18:13:10;;;;;;;11.90;2.40;;;15.60;62.80;;;;;;4772382;30;20138;-72
2023/03/16 18:15:36;;;;;;;7.40;2.50;;;15.70;62.80;;;;;;4772258;30;20056;-74
